Terminal Aerodrome Forecast
Issued by NWS St Louis, MO

Home | Current Version | Previous Version | Text Only | Print | Product List | Glossary On
Versions: 1 2 3 4 5 6 7 8 9 10 11 12 13 14 15 16 17
000
FTUS43 KLSX 281600 AAA
TAFCOU
TAF AMD
KCOU 281639Z 2817/2912 24008KT P6SM SCT050 BKN100
      TEMPO 2817/2818 -SHRA
     FM282200 23013G20KT P6SM VCTS SCT050CB BKN100
      TEMPO 2823/2901 3SM TSRA OVC030CB
     FM290300 24008KT P6SM SCT050 BKN120
     FM290900 26008KT P6SM SCT250=

USA.gov is the U.S. government's official web portal to all federal, state and local government web resources and services.